Time;durP1;ratioP1;P1;durP2;ratioP2;P2;SDS_P1;SDS_P2;PMS_P1;PMS_P2;Temp;Humidity;BMP_temperature;BMP_pressure;BME280_temperature;BME280_humidity;BME280_pressure;Samples;Min_cycle;Max_cycle;Signal;HPM_P1;HPM_P2
2021/12/12 00:01:23;;;;;;;73.68;52.17;;;1.40;99.90;;;;;;5037349;28;20039;-69
2021/12/12 00:03:53;;;;;;;74.07;52.53;;;1.50;99.90;;;;;;5042073;28;20021;-69
2021/12/12 00:06:31;;;;;;;75.30;53.10;;;1.50;99.90;;;;;;5035174;28;20451;-69
2021/12/12 00:09:07;;;;;;;78.32;54.88;;;1.50;99.90;;;;;;5042244;28;20013;-70
2021/12/12 00:11:36;;;;;;;81.85;55.80;;;1.50;99.90;;;;;;5028694;28;20265;-70
2021/12/12 00:14:22;;;;;;;74.78;53.58;;;1.60;99.90;;;;;;5023503;28;20029;-69
2021/12/12 00:16:48;;;;;;;74.18;52.20;;;1.60;99.90;;;;;;5036338;28;20440;-69
2021/12/12 00:19:14;;;;;;;76.15;52.92;;;1.50;99.90;;;;;;5035925;28;20036;-69
2021/12/12 00:21:45;;;;;;;77.38;53.78;;;1.60;99.90;;;;;;5040284;28;20407;-69
2021/12/12 00:24:15;;;;;;;74.22;51.80;;;1.60;99.90;;;;;;5045352;28;20023;-70
2021/12/12 00:26:41;;;;;;;77.35;52.22;;;1.60;99.90;;;;;;5036024;28;20043;-69
2021/12/12 00:29:10;;;;;;;72.65;51.53;;;1.60;99.90;;;;;;5047640;28;20020;-70
2021/12/12 00:31:36;;;;;;;79.80;53.65;;;1.50;99.90;;;;;;5032140;28;20026;-69
2021/12/12 00:34:03;;;;;;;76.22;53.35;;;1.50;99.90;;;;;;5048410;28;20525;-71
2021/12/12 00:36:29;;;;;;;74.95;52.75;;;1.60;99.90;;;;;;5049296;28;20368;-70
2021/12/12 00:39:00;;;;;;;76.03;51.20;;;1.50;99.90;;;;;;5043219;28;20045;-70
2021/12/12 00:41:40;;;;;;;76.22;51.83;;;1.50;99.90;;;;;;5036283;28;20049;-70
2021/12/12 00:44:06;;;;;;;74.38;52.35;;;1.60;99.90;;;;;;5035677;28;20528;-69
2021/12/12 00:46:32;;;;;;;78.63;54.28;;;1.50;99.90;;;;;;5045557;28;20025;-70
2021/12/12 00:48:58;;;;;;;80.93;55.20;;;1.60;99.90;;;;;;5039259;28;20047;-69
2021/12/12 00:51:30;;;;;;;81.13;55.33;;;1.60;99.90;;;;;;5042675;28;20503;-70
2021/12/12 00:53:57;;;;;;;77.95;53.75;;;1.60;99.90;;;;;;5041668;28;20021;-70
2021/12/12 00:56:22;;;;;;;83.82;55.33;;;1.50;99.90;;;;;;5036638;28;20502;-70
2021/12/12 00:58:49;;;;;;;85.82;54.88;;;1.50;99.90;;;;;;5031652;28;20025;-70
2021/12/12 01:01:39;;;;;;;97.25;58.95;;;1.50;99.90;;;;;;5039337;28;20029;-69
2021/12/12 01:04:31;;;;;;;93.45;57.28;;;1.40;99.90;;;;;;5036954;28;20025;-69
2021/12/12 01:06:59;;;;;;;78.28;54.30;;;1.30;99.90;;;;;;5037189;28;20068;-69
2021/12/12 01:09:28;;;;;;;81.43;55.65;;;1.30;99.90;;;;;;5046138;28;20387;-69
2021/12/12 01:11:57;;;;;;;84.13;53.70;;;1.30;99.90;;;;;;5042672;28;20014;-70
2021/12/12 01:14:27;;;;;;;85.72;55.67;;;1.30;99.90;;;;;;5038531;28;20394;-69
2021/12/12 01:17:01;;;;;;;82.53;54.72;;;1.30;99.90;;;;;;5040226;28;20022;-70
2021/12/12 01:19:32;;;;;;;83.47;53.90;;;1.40;99.90;;;;;;5036811;28;20021;-69
2021/12/12 01:22:04;;;;;;;74.22;51.00;;;1.50;99.90;;;;;;5045501;28;20078;-69
2021/12/12 01:24:42;;;;;;;81.75;52.80;;;1.50;99.90;;;;;;5041415;28;20021;-69
2021/12/12 01:27:09;;;;;;;86.80;54.30;;;1.50;99.90;;;;;;5055634;28;20483;-69
2021/12/12 01:29:34;;;;;;;70.57;50.05;;;1.40;99.90;;;;;;5026003;28;20034;-69
2021/12/12 01:32:03;;;;;;;64.78;46.80;;;1.40;99.90;;;;;;5045251;28;20368;-70
2021/12/12 01:34:31;;;;;;;71.25;51.40;;;1.70;99.90;;;;;;5042069;28;20017;-70
2021/12/12 01:39:56;;;;;;;71.38;48.47;;;1.50;99.90;;;;;;5036940;28;20041;-70
2021/12/12 01:42:29;;;;;;;66.82;47.22;;;1.60;99.90;;;;;;5028860;28;20134;-70
2021/12/12 01:45:38;;;;;;;74.10;50.08;;;1.60;99.90;;;;;;5035485;28;20060;-70
2021/12/12 01:48:21;;;;;;;67.82;47.60;;;1.70;99.90;;;;;;5018272;28;20032;-69
2021/12/12 01:50:53;;;;;;;70.32;47.63;;;1.60;99.90;;;;;;5029202;28;20546;-69
2021/12/12 01:53:26;;;;;;;61.65;45.03;;;1.70;99.90;;;;;;5026571;28;20052;-69
2021/12/12 01:56:17;;;;;;;72.13;49.35;;;1.70;99.90;;;;;;5038173;28;20188;-70
2021/12/12 01:58:44;;;;;;;78.72;52.60;;;1.70;99.90;;;;;;5032029;28;20030;-70
2021/12/12 02:01:20;;;;;;;81.55;51.70;;;1.50;99.90;;;;;;5039394;28;20095;-68
2021/12/12 02:03:51;;;;;;;87.57;53.00;;;1.50;99.90;;;;;;5041147;28;20018;-69
2021/12/12 02:06:20;;;;;;;80.07;51.30;;;1.50;99.90;;;;;;5038391;28;20025;-69
2021/12/12 02:08:49;;;;;;;78.22;50.72;;;1.50;99.90;;;;;;5037385;28;20040;-70
2021/12/12 02:11:21;;;;;;;74.05;49.65;;;1.40;99.90;;;;;;5044902;28;20086;-69
2021/12/12 02:13:50;;;;;;;73.90;48.65;;;1.60;99.90;;;;;;5022553;28;20045;-70
2021/12/12 02:16:18;;;;;;;73.40;48.88;;;1.50;99.90;;;;;;5035457;28;20048;-70
2021/12/12 02:18:48;;;;;;;71.97;47.50;;;1.50;99.90;;;;;;5032055;28;20097;-69
2021/12/12 02:21:28;;;;;;;65.60;46.30;;;1.60;99.90;;;;;;5028421;28;20112;-70
2021/12/12 02:24:23;;;;;;;72.80;48.10;;;1.60;99.90;;;;;;5031766;28;20534;-68
2021/12/12 02:35:26;;;;;;;70.38;46.25;;;1.60;99.90;;;;;;5032985;28;20098;-70
2021/12/12 02:37:55;;;;;;;59.15;42.78;;;1.80;99.90;;;;;;5032928;28;20022;-70
2021/12/12 02:40:26;;;;;;;69.90;47.17;;;1.70;99.90;;;;;;5032728;28;20025;-70
2021/12/12 02:42:52;;;;;;;62.92;42.88;;;1.70;99.90;;;;;;5031504;28;20029;-71
2021/12/12 02:45:20;;;;;;;61.17;44.08;;;1.70;99.90;;;;;;5030352;28;20025;-71
2021/12/12 02:47:56;;;;;;;56.35;40.38;;;1.70;99.90;;;;;;5032710;28;20017;-71
2021/12/12 02:50:28;;;;;;;65.05;44.20;;;1.80;99.90;;;;;;5032515;28;20093;-70
2021/12/12 02:53:19;;;;;;;77.75;47.97;;;1.70;99.90;;;;;;5031980;28;20120;-70
2021/12/12 02:55:52;;;;;;;74.18;46.65;;;1.70;99.90;;;;;;5032737;28;20115;-71
2021/12/12 02:58:21;;;;;;;68.05;44.35;;;1.60;99.90;;;;;;5031820;28;20037;-71
2021/12/12 03:01:10;;;;;;;71.68;45.78;;;1.60;99.90;;;;;;5032118;28;20079;-72
2021/12/12 03:03:37;;;;;;;67.82;44.92;;;1.60;99.90;;;;;;5032049;28;20044;-69
2021/12/12 03:06:06;;;;;;;68.68;46.05;;;1.80;99.90;;;;;;5021968;28;20022;-70
2021/12/12 03:08:33;;;;;;;64.32;43.20;;;1.70;99.90;;;;;;5011251;28;20559;-70
2021/12/12 03:10:59;;;;;;;65.18;43.97;;;1.70;99.90;;;;;;5012525;28;20033;-70
2021/12/12 03:13:25;;;;;;;64.75;43.58;;;1.70;99.90;;;;;;5011290;28;20543;-71
2021/12/12 03:15:51;;;;;;;57.67;40.10;;;1.70;99.90;;;;;;5012304;28;20030;-70
2021/12/12 03:18:40;;;;;;;61.83;41.50;;;1.80;99.90;;;;;;5024796;28;20036;-70
2021/12/12 03:21:15;;;;;;;54.53;38.45;;;1.80;99.90;;;;;;5040969;28;20021;-70
2021/12/12 03:23:44;;;;;;;63.58;42.15;;;1.80;99.90;;;;;;5023893;28;20480;-70
2021/12/12 03:26:11;;;;;;;55.50;38.63;;;1.80;99.90;;;;;;5012025;28;20030;-70
2021/12/12 03:28:41;;;;;;;56.92;38.92;;;1.80;99.90;;;;;;5021328;28;20013;-70
2021/12/12 03:31:12;;;;;;;62.30;41.20;;;1.70;99.90;;;;;;5031668;28;20044;-71
2021/12/12 03:33:38;;;;;;;60.50;39.30;;;1.80;99.90;;;;;;5031893;28;20029;-71
2021/12/12 03:36:07;;;;;;;56.83;39.00;;;1.80;99.90;;;;;;5030394;28;20067;-70
2021/12/12 03:38:36;;;;;;;59.95;40.92;;;1.80;99.90;;;;;;5020574;28;20070;-71
2021/12/12 03:41:06;;;;;;;56.35;39.67;;;1.80;99.90;;;;;;5014922;28;20475;-71
2021/12/12 03:43:33;;;;;;;53.47;38.53;;;1.80;99.90;;;;;;5030809;28;20399;-70
2021/12/12 03:45:59;;;;;;;61.75;39.80;;;1.80;99.90;;;;;;5025790;28;20435;-71
2021/12/12 03:48:28;;;;;;;58.33;39.05;;;1.80;99.90;;;;;;5024318;28;20037;-71
2021/12/12 03:50:56;;;;;;;55.38;37.22;;;1.80;99.90;;;;;;5033716;28;20108;-71
2021/12/12 03:53:23;;;;;;;54.55;37.55;;;1.80;99.90;;;;;;5031663;28;20029;-71
2021/12/12 03:55:50;;;;;;;48.90;35.00;;;1.70;99.90;;;;;;5018263;28;20095;-69
2021/12/12 03:58:16;;;;;;;52.88;37.95;;;1.70;99.90;;;;;;5018295;28;20018;-70
2021/12/12 04:00:57;;;;;;;53.67;35.83;;;1.80;99.90;;;;;;5030112;28;20480;-70
2021/12/12 04:03:23;;;;;;;49.60;35.70;;;1.80;99.90;;;;;;5016220;28;20036;-71
2021/12/12 04:05:53;;;;;;;49.83;35.75;;;1.80;99.90;;;;;;5020330;28;20017;-71
2021/12/12 04:08:25;;;;;;;51.22;34.72;;;1.80;99.90;;;;;;5031606;28;21330;-71
2021/12/12 04:10:52;;;;;;;45.80;31.73;;;1.80;99.90;;;;;;5031844;28;20057;-71
2021/12/12 04:13:17;;;;;;;44.90;32.75;;;1.80;99.90;;;;;;5031450;28;20021;-70
2021/12/12 04:15:43;;;;;;;47.15;32.72;;;1.80;99.90;;;;;;5031229;28;20026;-70
2021/12/12 04:18:08;;;;;;;45.03;32.78;;;1.80;99.90;;;;;;5031404;28;20029;-71
2021/12/12 04:20:36;;;;;;;46.20;31.83;;;1.80;99.90;;;;;;5021344;28;20073;-71
2021/12/12 04:23:13;;;;;;;45.67;32.25;;;1.80;99.90;;;;;;5015023;28;20476;-71
2021/12/12 04:25:38;;;;;;;42.88;31.02;;;1.80;99.90;;;;;;5031278;28;20476;-71
2021/12/12 04:28:04;;;;;;;42.33;30.33;;;1.80;99.90;;;;;;5013296;28;20098;-70
2021/12/12 04:30:29;;;;;;;47.15;32.95;;;1.90;99.90;;;;;;5022880;28;20030;-69
2021/12/12 04:32:56;;;;;;;42.03;30.85;;;1.90;99.90;;;;;;5017962;28;20569;-70
2021/12/12 04:35:28;;;;;;;41.90;30.05;;;1.90;99.90;;;;;;5031060;28;20030;-70
2021/12/12 04:37:55;;;;;;;49.20;31.73;;;1.90;99.90;;;;;;5031305;28;20055;-71
2021/12/12 04:40:25;;;;;;;38.10;28.00;;;1.80;99.90;;;;;;5016882;28;20052;-71
2021/12/12 04:42:52;;;;;;;38.22;28.10;;;1.90;99.90;;;;;;5031367;28;20017;-71
2021/12/12 04:45:40;;;;;;;40.35;29.02;;;1.90;99.90;;;;;;5016499;28;20511;-70
2021/12/12 04:51:27;;;;;;;40.47;29.30;;;1.90;99.90;;;;;;5018924;28;20037;-71
2021/12/12 04:54:01;;;;;;;41.13;30.35;;;2.10;99.90;;;;;;5027149;28;20032;-71
2021/12/12 04:56:35;;;;;;;44.88;30.90;;;1.90;99.90;;;;;;5010106;28;20029;-70
2021/12/12 04:59:14;;;;;;;45.50;29.88;;;1.90;99.90;;;;;;5024497;28;20022;-70
2021/12/12 05:02:04;;;;;;;39.53;31.17;;;1.90;99.90;;;;;;5012912;28;20036;-70
2021/12/12 05:04:46;;;;;;;39.33;28.95;;;1.90;99.90;;;;;;5019413;28;20084;-70
2021/12/12 05:07:33;;;;;;;43.63;31.40;;;1.90;99.90;;;;;;5034482;28;20021;-71
2021/12/12 05:10:12;;;;;;;42.33;31.05;;;1.90;99.90;;;;;;5031006;28;20026;-70
2021/12/12 05:12:45;;;;;;;42.30;29.75;;;1.90;99.90;;;;;;5026730;28;20040;-70
2021/12/12 05:15:30;;;;;;;40.17;29.60;;;1.90;99.90;;;;;;5013330;28;20127;-71
2021/12/12 05:18:06;;;;;;;42.88;30.42;;;1.80;99.90;;;;;;5014756;28;20029;-70
2021/12/12 05:20:36;;;;;;;47.28;31.55;;;1.80;99.90;;;;;;5024768;28;20518;-71
2021/12/12 05:23:06;;;;;;;39.42;28.52;;;1.70;99.90;;;;;;5030367;28;20026;-71
2021/12/12 05:25:39;;;;;;;44.90;32.10;;;1.70;99.90;;;;;;5014246;28;20030;-70
2021/12/12 05:28:07;;;;;;;42.42;31.10;;;1.60;99.90;;;;;;5013230;28;20026;-71
2021/12/12 05:30:35;;;;;;;42.45;29.88;;;1.60;99.90;;;;;;5014216;28;20500;-71
2021/12/12 05:33:02;;;;;;;37.42;29.20;;;1.60;99.90;;;;;;5018832;28;20039;-71
2021/12/12 05:35:32;;;;;;;39.25;29.10;;;1.70;99.90;;;;;;5032729;28;20121;-71
2021/12/12 05:37:59;;;;;;;108.88;89.88;;;1.60;99.90;;;;;;5034450;28;20069;-70
2021/12/12 05:40:29;;;;;;;67.00;52.78;;;1.70;99.90;;;;;;5018808;28;20049;-70
2021/12/12 05:42:59;;;;;;;69.78;55.80;;;1.60;99.90;;;;;;5032745;28;20403;-71
2021/12/12 05:45:25;;;;;;;51.92;45.45;;;1.60;99.90;;;;;;5018985;28;20133;-69
2021/12/12 05:47:51;;;;;;;37.53;29.05;;;1.70;99.90;;;;;;5014477;28;20349;-69
2021/12/12 05:50:18;;;;;;;37.70;27.75;;;1.70;99.90;;;;;;5012722;28;20037;-69
2021/12/12 05:52:46;;;;;;;29.30;23.02;;;1.70;99.90;;;;;;5013915;28;20030;-70
2021/12/12 05:55:16;;;;;;;25.30;19.88;;;1.80;99.90;;;;;;5015830;28;20475;-69
2021/12/12 05:57:45;;;;;;;27.20;20.83;;;1.80;99.90;;;;;;5033809;28;20061;-68
2021/12/12 06:00:15;;;;;;;24.55;19.70;;;1.80;99.90;;;;;;5015985;28;20124;-69
2021/12/12 06:02:41;;;;;;;29.77;21.63;;;1.80;99.90;;;;;;5013934;28;20084;-69
2021/12/12 06:05:08;;;;;;;27.35;22.75;;;1.70;99.90;;;;;;5013593;28;20029;-70
2021/12/12 06:07:34;;;;;;;30.60;25.95;;;1.70;99.90;;;;;;5014037;28;20025;-70
2021/12/12 06:10:07;;;;;;;35.08;27.75;;;1.70;99.90;;;;;;5014097;28;20026;-70
2021/12/12 06:12:34;;;;;;;43.55;28.58;;;1.70;99.90;;;;;;5013581;28;20038;-69
2021/12/12 06:15:03;;;;;;;39.60;29.33;;;1.70;99.90;;;;;;5031187;28;20100;-70
2021/12/12 06:17:30;;;;;;;40.67;29.50;;;1.60;99.90;;;;;;5032064;28;20124;-69
2021/12/12 06:19:57;;;;;;;35.17;29.75;;;1.50;99.90;;;;;;5014983;28;20057;-71
2021/12/12 06:22:23;;;;;;;43.47;29.02;;;1.50;99.90;;;;;;5013417;28;20028;-71
2021/12/12 06:24:50;;;;;;;39.67;30.73;;;1.50;99.90;;;;;;5011947;28;20112;-71
2021/12/12 06:27:18;;;;;;;42.67;30.42;;;1.50;99.90;;;;;;5013432;28;20580;-71
2021/12/12 06:29:48;;;;;;;34.80;29.23;;;1.40;99.90;;;;;;5013269;28;20038;-70
2021/12/12 06:32:14;;;;;;;37.88;28.55;;;1.40;99.90;;;;;;5013271;28;20471;-71
2021/12/12 06:34:40;;;;;;;41.58;31.02;;;1.40;99.90;;;;;;5022412;28;20091;-71
2021/12/12 06:37:06;;;;;;;45.80;35.83;;;1.40;99.90;;;;;;5033029;28;20032;-70
2021/12/12 06:39:32;;;;;;;39.95;28.63;;;1.40;99.90;;;;;;5032873;28;20021;-70
2021/12/12 06:41:58;;;;;;;40.65;28.27;;;1.30;99.90;;;;;;5031532;28;20075;-71
2021/12/12 06:44:25;;;;;;;34.65;26.50;;;1.30;99.90;;;;;;5032543;28;20021;-71
2021/12/12 06:46:53;;;;;;;32.47;24.77;;;1.30;99.90;;;;;;5031466;28;20104;-71
2021/12/12 06:49:20;;;;;;;34.28;25.65;;;1.20;99.90;;;;;;5026793;28;20022;-71
2021/12/12 06:51:57;;;;;;;29.67;24.40;;;1.20;99.90;;;;;;5023921;28;20476;-70
2021/12/12 06:54:25;;;;;;;29.63;24.60;;;1.10;99.90;;;;;;5029430;28;20104;-70
2021/12/12 06:57:00;;;;;;;32.42;24.80;;;1.10;99.90;;;;;;5027805;28;20105;-69
2021/12/12 06:59:29;;;;;;;33.22;22.13;;;1.00;99.90;;;;;;5045210;28;20083;-69
2021/12/12 07:01:55;;;;;;;32.35;22.20;;;1.10;99.90;;;;;;5032388;28;20036;-70
2021/12/12 07:04:23;;;;;;;32.45;23.58;;;1.00;99.90;;;;;;5030865;28;20018;-69
2021/12/12 07:06:53;;;;;;;27.83;21.85;;;1.00;99.90;;;;;;5032165;28;20029;-70
2021/12/12 07:09:20;;;;;;;28.10;20.67;;;1.00;99.90;;;;;;5030515;28;20026;-71
2021/12/12 07:11:46;;;;;;;31.15;20.77;;;1.00;99.90;;;;;;5030530;28;20372;-72
2021/12/12 07:14:16;;;;;;;30.20;21.25;;;1.00;99.90;;;;;;5031659;28;20025;-71
2021/12/12 07:16:42;;;;;;;28.48;21.77;;;1.20;99.90;;;;;;5031732;28;20033;-71
2021/12/12 07:19:08;;;;;;;28.42;23.48;;;1.00;99.90;;;;;;5020347;28;20087;-70
2021/12/12 07:21:36;;;;;;;28.65;23.48;;;1.10;99.90;;;;;;5028036;28;20172;-69
2021/12/12 07:24:03;;;;;;;30.00;25.05;;;1.10;99.90;;;;;;5031728;28;20156;-70
2021/12/12 07:26:29;;;;;;;32.67;24.50;;;1.20;99.90;;;;;;5031848;28;20021;-70
2021/12/12 07:28:59;;;;;;;35.60;24.00;;;1.20;99.90;;;;;;5031912;28;20537;-70
2021/12/12 07:31:30;;;;;;;28.33;21.60;;;1.20;99.90;;;;;;5029955;28;20033;-69
2021/12/12 07:33:59;;;;;;;29.25;20.35;;;1.30;99.90;;;;;;5030255;28;20027;-70
2021/12/12 07:36:26;;;;;;;24.27;20.15;;;1.30;99.90;;;;;;5031760;28;20033;-70
2021/12/12 07:38:58;;;;;;;23.40;18.33;;;1.30;99.90;;;;;;5031626;28;20036;-70
2021/12/12 07:41:26;;;;;;;23.45;18.40;;;1.30;99.90;;;;;;5029418;28;20030;-70
2021/12/12 07:43:52;;;;;;;25.60;18.50;;;1.40;99.90;;;;;;5031573;28;20029;-70
2021/12/12 07:46:19;;;;;;;23.52;18.35;;;1.40;99.90;;;;;;5039413;28;20079;-69
2021/12/12 07:48:47;;;;;;;25.23;19.13;;;1.40;99.90;;;;;;5036152;28;20075;-70
2021/12/12 07:51:14;;;;;;;24.08;18.67;;;1.40;99.90;;;;;;5031641;28;20104;-70
2021/12/12 07:53:40;;;;;;;23.50;17.98;;;1.30;99.90;;;;;;5031398;28;20076;-70
2021/12/12 07:56:07;;;;;;;28.10;17.80;;;1.40;99.90;;;;;;5031397;28;20053;-69
2021/12/12 07:58:34;;;;;;;26.90;17.02;;;1.40;99.90;;;;;;5031509;28;20403;-70
2021/12/12 08:01:00;;;;;;;27.55;17.58;;;1.40;99.90;;;;;;5031367;28;20032;-70
2021/12/12 08:03:31;;;;;;;21.35;16.33;;;1.40;99.90;;;;;;5015758;28;20029;-70
2021/12/12 08:06:00;;;;;;;20.00;14.85;;;1.40;99.90;;;;;;5010368;28;20026;-69
2021/12/12 08:08:28;;;;;;;19.92;15.20;;;1.40;99.90;;;;;;5011593;28;20485;-70
2021/12/12 08:10:56;;;;;;;22.23;14.80;;;1.50;99.90;;;;;;5029243;28;20057;-70
2021/12/12 08:13:23;;;;;;;17.77;13.90;;;1.50;99.90;;;;;;5031324;28;20040;-69
2021/12/12 08:15:49;;;;;;;23.88;17.05;;;1.50;99.90;;;;;;5020230;28;20037;-69
2021/12/12 08:18:18;;;;;;;24.75;15.18;;;1.60;99.90;;;;;;5024814;28;20030;-69
2021/12/12 08:20:45;;;;;;;23.52;15.77;;;1.70;99.90;;;;;;5010164;28;20618;-70
2021/12/12 08:23:12;;;;;;;22.63;14.98;;;1.60;99.90;;;;;;5011585;28;20026;-69
2021/12/12 08:25:39;;;;;;;18.88;13.48;;;1.70;99.90;;;;;;5014254;28;20105;-70
2021/12/12 08:28:05;;;;;;;20.23;13.68;;;1.70;99.90;;;;;;5024211;28;20032;-70
2021/12/12 08:30:33;;;;;;;18.23;13.25;;;1.70;99.90;;;;;;5022016;28;20048;-69
2021/12/12 08:32:59;;;;;;;18.38;13.73;;;1.70;99.90;;;;;;5022650;28;20017;-68
2021/12/12 08:35:27;;;;;;;15.85;11.45;;;1.70;99.90;;;;;;5026768;28;20101;-68
2021/12/12 08:37:53;;;;;;;16.35;12.40;;;1.70;99.90;;;;;;5023019;28;20036;-70
2021/12/12 08:40:24;;;;;;;17.00;13.32;;;1.70;99.90;;;;;;5019265;28;20049;-70
2021/12/12 08:42:52;;;;;;;17.15;11.90;;;1.80;99.90;;;;;;5026036;28;20025;-70
2021/12/12 08:45:21;;;;;;;17.67;12.27;;;1.80;99.90;;;;;;5028245;28;20365;-70
2021/12/12 08:47:48;;;;;;;16.35;11.38;;;2.00;99.90;;;;;;5026265;28;20469;-70
2021/12/12 08:50:17;;;;;;;14.05;11.23;;;1.90;99.90;;;;;;5026236;28;20057;-70
2021/12/12 08:52:46;;;;;;;17.10;10.70;;;1.90;99.90;;;;;;5026699;28;20025;-70
2021/12/12 08:55:19;;;;;;;15.93;11.65;;;1.90;99.90;;;;;;5025777;28;20026;-72
2021/12/12 08:57:58;;;;;;;17.23;12.18;;;2.00;99.90;;;;;;5028064;28;20495;-71
2021/12/12 09:00:26;;;;;;;18.27;11.82;;;2.00;99.90;;;;;;5046559;28;20245;-71
2021/12/12 09:02:53;;;;;;;17.13;12.45;;;2.00;99.90;;;;;;5038669;28;20054;-71
2021/12/12 09:05:25;;;;;;;16.60;11.25;;;2.00;99.90;;;;;;5026208;28;20087;-71
2021/12/12 09:07:55;;;;;;;16.60;12.13;;;2.00;99.90;;;;;;5025528;28;21326;-72
2021/12/12 09:10:28;;;;;;;17.25;12.48;;;2.10;99.90;;;;;;5040462;28;20033;-71
2021/12/12 09:13:02;;;;;;;18.00;11.07;;;2.10;99.90;;;;;;5025528;28;20562;-71
2021/12/12 09:15:49;;;;;;;18.00;10.10;;;2.10;99.90;;;;;;5026214;28;20026;-70
2021/12/12 09:18:24;;;;;;;12.52;9.57;;;2.00;99.90;;;;;;5024445;28;20021;-69
2021/12/12 09:20:58;;;;;;;13.13;9.45;;;2.10;99.90;;;;;;5023861;28;20503;-71
2021/12/12 09:24:00;;;;;;;12.77;9.18;;;2.10;99.90;;;;;;5029646;28;20392;-70
2021/12/12 09:26:26;;;;;;;23.08;15.93;;;2.20;99.90;;;;;;5022433;28;20024;-70
2021/12/12 09:29:10;;;;;;;18.95;13.57;;;2.10;99.90;;;;;;5025165;28;20385;-71
2021/12/12 09:31:42;;;;;;;15.60;12.20;;;2.20;99.90;;;;;;5032247;28;20021;-69
2021/12/12 09:34:34;;;;;;;21.95;13.65;;;2.30;99.90;;;;;;5028026;28;20025;-71
2021/12/12 09:37:09;;;;;;;24.88;16.20;;;2.40;99.90;;;;;;5025055;28;20029;-70
2021/12/12 09:39:46;;;;;;;20.27;12.82;;;2.40;99.90;;;;;;5020702;28;20022;-70
2021/12/12 09:42:37;;;;;;;17.10;11.25;;;2.50;99.90;;;;;;5023132;28;20068;-70
2021/12/12 09:45:30;;;;;;;12.27;8.30;;;2.60;99.90;;;;;;5030248;28;20032;-70
2021/12/12 09:51:49;;;;;;;17.27;9.40;;;2.70;99.90;;;;;;5020970;28;20122;-71
2021/12/12 09:54:26;;;;;;;17.42;10.63;;;2.70;99.90;;;;;;5022127;28;20427;-70
2021/12/12 09:57:17;;;;;;;21.42;12.98;;;2.70;99.90;;;;;;5043167;28;20022;-70
2021/12/12 10:00:02;;;;;;;20.67;10.13;;;2.70;99.90;;;;;;5028790;28;20492;-70
2021/12/12 10:03:12;;;;;;;16.25;10.27;;;2.80;99.90;;;;;;5046253;28;20026;-70
2021/12/12 10:06:09;;;;;;;14.93;10.35;;;2.80;99.90;;;;;;5024009;28;20050;-70
2021/12/12 10:08:54;;;;;;;12.93;9.20;;;2.90;99.90;;;;;;5053138;28;20021;-70
2021/12/12 10:11:42;;;;;;;17.38;10.45;;;2.90;99.90;;;;;;5027554;28;20022;-70
2021/12/12 10:14:25;;;;;;;16.42;8.82;;;2.90;99.90;;;;;;5027648;28;20436;-71
2021/12/12 10:17:02;;;;;;;11.50;7.10;;;3.00;99.90;;;;;;5030325;28;20045;-71
2021/12/12 10:19:54;;;;;;;11.68;6.45;;;3.00;99.90;;;;;;5020523;28;20476;-70
2021/12/12 10:22:30;;;;;;;10.82;5.70;;;3.10;99.90;;;;;;5029240;28;20041;-71
2021/12/12 10:25:05;;;;;;;;;;;3.10;99.90;;;;;;5013751;28;20109;-70
2021/12/12 10:27:39;;;;;;;9.45;6.10;;;3.10;99.90;;;;;;5016147;28;20330;-70
2021/12/12 10:30:38;;;;;;;14.57;8.35;;;3.10;99.90;;;;;;5033049;28;20040;-70
2021/12/12 10:33:21;;;;;;;9.63;6.75;;;3.20;99.90;;;;;;5026830;28;20038;-71
2021/12/12 10:36:05;;;;;;;12.90;7.68;;;3.20;99.90;;;;;;5028228;28;20032;-70
2021/12/12 10:38:42;;;;;;;11.85;8.10;;;3.30;99.90;;;;;;5031609;28;20415;-71
2021/12/12 10:41:16;;;;;;;11.65;7.40;;;3.40;99.90;;;;;;5030625;28;20480;-70
2021/12/12 10:43:59;;;;;;;9.70;6.40;;;3.40;99.90;;;;;;5032277;28;20028;-70
2021/12/12 10:46:35;;;;;;;10.88;6.20;;;3.40;99.90;;;;;;5012907;28;20038;-70
2021/12/12 10:49:12;;;;;;;14.18;6.43;;;3.50;99.90;;;;;;5012926;28;20022;-70
2021/12/12 10:51:44;;;;;;;13.23;8.43;;;3.60;99.90;;;;;;5024220;28;20403;-71
2021/12/12 10:54:34;;;;;;;9.80;6.82;;;3.70;99.90;;;;;;5019565;28;20091;-70
2021/12/12 10:57:18;;;;;;;10.75;7.25;;;3.70;99.90;;;;;;5028297;28;20056;-71
2021/12/12 11:00:14;;;;;;;12.95;6.85;;;3.80;99.90;;;;;;5032276;28;20088;-71
2021/12/12 11:02:49;;;;;;;12.68;8.27;;;3.80;99.90;;;;;;5032029;28;20104;-71
2021/12/12 11:05:21;;;;;;;16.13;9.88;;;3.90;99.90;;;;;;5026805;28;20061;-70
2021/12/12 11:07:57;;;;;;;14.07;8.68;;;3.90;99.90;;;;;;5022344;28;20052;-71
2021/12/12 11:10:34;;;;;;;14.45;8.25;;;3.90;99.90;;;;;;5027335;28;20022;-71
2021/12/12 11:13:27;;;;;;;11.52;7.93;;;4.00;99.90;;;;;;5032301;28;20038;-72
2021/12/12 11:16:15;;;;;;;9.95;6.65;;;3.90;99.90;;;;;;5031938;28;20032;-72
2021/12/12 11:18:58;;;;;;;11.07;6.30;;;4.00;99.90;;;;;;5030674;28;20036;-71
2021/12/12 11:21:26;;;;;;;13.00;7.20;;;4.10;99.90;;;;;;5026800;28;20399;-70
2021/12/12 11:24:00;;;;;;;10.75;4.82;;;4.10;99.90;;;;;;5017814;28;20014;-71
2021/12/12 11:26:40;;;;;;;9.10;4.93;;;4.00;99.90;;;;;;5018858;28;20017;-70
2021/12/12 11:29:26;;;;;;;8.27;4.43;;;4.00;99.90;;;;;;5030885;28;20022;-70
2021/12/12 11:32:08;;;;;;;9.95;4.60;;;3.90;99.90;;;;;;5027634;28;20033;-71
2021/12/12 11:34:34;;;;;;;10.00;4.88;;;3.80;99.90;;;;;;5031619;28;20040;-70
2021/12/12 11:37:30;;;;;;;8.68;4.55;;;3.80;99.90;;;;;;5025650;28;20029;-70
2021/12/12 11:40:27;;;;;;;9.40;4.40;;;3.70;99.90;;;;;;5029790;28;20041;-70
2021/12/12 11:42:58;;;;;;;9.35;4.28;;;3.70;99.90;;;;;;5030812;28;20264;-70
2021/12/12 11:45:25;;;;;;;9.48;4.93;;;3.70;99.90;;;;;;5028992;28;20025;-71
2021/12/12 11:48:15;;;;;;;10.68;6.22;;;3.70;99.90;;;;;;5028449;28;20029;-70
2021/12/12 11:50:57;;;;;;;10.20;6.25;;;3.80;99.90;;;;;;5027967;28;20033;-72
2021/12/12 11:54:00;;;;;;;9.27;5.95;;;3.80;99.90;;;;;;5023599;28;20449;-72
2021/12/12 11:56:45;;;;;;;9.82;6.45;;;3.90;99.90;;;;;;5029950;28;20033;-71
2021/12/12 11:59:25;;;;;;;8.68;5.13;;;4.00;99.90;;;;;;5029858;28;20034;-71
2021/12/12 12:02:30;;;;;;;9.27;4.78;;;4.00;99.90;;;;;;5018399;28;20361;-71
2021/12/12 12:05:14;;;;;;;8.50;5.00;;;4.00;99.90;;;;;;5019769;28;20025;-71
2021/12/12 12:07:43;;;;;;;9.35;5.07;;;4.10;99.90;;;;;;5019792;28;20022;-71
2021/12/12 12:10:36;;;;;;;7.00;4.75;;;4.10;99.90;;;;;;5023670;28;20480;-71
2021/12/12 12:13:15;;;;;;;10.68;5.55;;;4.20;99.90;;;;;;5023109;28;20380;-71
2021/12/12 12:16:05;;;;;;;8.15;5.00;;;4.20;99.90;;;;;;5021292;28;20029;-71
2021/12/12 12:19:07;;;;;;;7.32;4.13;;;4.30;99.90;;;;;;5034920;28;20033;-71
2021/12/12 12:21:40;;;;;;;9.07;5.75;;;4.30;99.90;;;;;;5034295;28;20539;-71
2021/12/12 12:24:25;;;;;;;8.07;4.85;;;4.50;99.90;;;;;;5026704;28;20037;-71
2021/12/12 12:27:17;;;;;;;6.43;4.55;;;4.40;99.90;;;;;;5035489;28;20018;-71
2021/12/12 12:30:00;;;;;;;8.88;4.13;;;4.20;99.90;;;;;;5035043;28;20099;-71
2021/12/12 12:32:41;;;;;;;6.68;4.70;;;4.10;99.90;;;;;;5022208;28;20455;-71
2021/12/12 12:35:19;;;;;;;8.30;4.97;;;4.10;99.90;;;;;;5029773;28;20018;-71
2021/12/12 12:38:22;;;;;;;6.80;4.80;;;4.10;99.90;;;;;;5033909;28;20057;-71
2021/12/12 12:41:25;;;;;;;6.85;4.00;;;3.90;99.90;;;;;;5034983;28;20365;-71
2021/12/12 12:44:28;;;;;;;8.63;4.70;;;4.00;99.90;;;;;;5034941;28;20022;-70
2021/12/12 12:47:25;;;;;;;8.73;5.00;;;4.00;99.90;;;;;;5020639;28;20046;-71
2021/12/12 12:50:28;;;;;;;8.00;4.78;;;4.00;99.90;;;;;;5025895;28;20093;-71
2021/12/12 12:53:26;;;;;;;10.05;4.75;;;4.00;99.90;;;;;;5035004;28;20067;-70
2021/12/12 12:56:29;;;;;;;10.30;5.00;;;4.00;99.90;;;;;;5034601;28;20044;-71
2021/12/12 12:59:17;;;;;;;9.18;5.10;;;4.10;99.90;;;;;;5021452;28;20033;-70
2021/12/12 13:02:04;;;;;;;7.55;4.90;;;4.10;99.90;;;;;;5031630;28;20438;-70
2021/12/12 13:04:47;;;;;;;8.02;5.05;;;4.10;99.90;;;;;;5024516;28;20099;-71
2021/12/12 13:07:40;;;;;;;10.50;6.47;;;4.10;99.90;;;;;;5028297;28;20423;-70
2021/12/12 13:10:21;;;;;;;9.23;5.20;;;4.10;99.90;;;;;;5032181;28;20029;-71
2021/12/12 13:13:10;;;;;;;8.77;4.80;;;4.10;99.90;;;;;;5034569;28;20025;-71
2021/12/12 13:16:10;;;;;;;8.35;5.40;;;4.10;99.90;;;;;;5034369;28;20026;-71
2021/12/12 13:18:57;;;;;;;11.93;6.50;;;4.20;99.90;;;;;;5034228;28;20018;-70
2021/12/12 13:21:38;;;;;;;15.07;7.70;;;4.20;99.90;;;;;;5034041;28;20021;-71
2021/12/12 13:24:22;;;;;;;5.95;5.25;;;4.20;99.90;;;;;;5034130;28;20068;-71
2021/12/12 13:27:10;;;;;;;10.13;7.18;;;4.20;99.90;;;;;;5033008;28;20364;-70
2021/12/12 13:30:03;;;;;;;9.45;7.47;;;4.10;99.90;;;;;;5015873;28;20075;-71
2021/12/12 13:32:45;;;;;;;7.75;6.20;;;4.10;99.90;;;;;;5012672;28;20392;-70
2021/12/12 13:35:26;;;;;;;7.80;6.32;;;4.10;99.90;;;;;;5027961;28;20091;-71
2021/12/12 13:38:22;;;;;;;8.73;5.80;;;4.10;99.90;;;;;;5034106;28;20021;-71